Airport View

Enter AWOS ICAO identifier for current METAR.

KFNL for example

KFNL 221056Z AUTO 01006KT 10SM CLR 10/02 A2977 RMK AO2 SLP018 T01000022

22 Sep 2017 11:43

Frequency: 135.075

Phone: 970-669-9187

Other Area AWOS: KGXY - KLMO - KEIK - KBDU

TAF AMD KBJC 220918Z 2209/2306 18008KT P6SM FEW220 FM220930 05008KT P6SM FEW220 FM221400 18008KT P6SM FEW220 FM221800 14012G20KT P6SM SCT220 FM222200 06012G20KT P6SM SCT100 BKN220